sensor_id;sensor_type;location;lat;lon;timestamp;P1;durP1;ratioP1;P2;durP2;ratioP2
10661;SDS011;5379;51.034;7.006;2023-04-01T04:32:36;0.30;;;0.30;;
10661;SDS011;5379;51.034;7.006;2023-04-01T04:35:03;0.17;;;0.17;;
10661;SDS011;5379;51.034;7.006;2023-04-01T04:37:32;0.50;;;0.50;;
10661;SDS011;5379;51.034;7.006;2023-04-01T04:39:59;0.20;;;0.20;;
10661;SDS011;5379;51.034;7.006;2023-04-01T04:42:25;0.10;;;0.10;;
10661;SDS011;5379;51.034;7.006;2023-04-01T04:44:52;0.07;;;0.07;;
10661;SDS011;5379;51.034;7.006;2023-04-01T04:47:19;0.20;;;0.20;;
10661;SDS011;5379;51.034;7.006;2023-04-01T04:49:48;0.30;;;0.30;;
10661;SDS011;5379;51.034;7.006;2023-04-01T04:52:14;0.13;;;0.13;;
10661;SDS011;5379;51.034;7.006;2023-04-01T04:54:41;0.20;;;0.20;;
10661;SDS011;5379;51.034;7.006;2023-04-01T04:57:08;0.20;;;0.20;;
10661;SDS011;5379;51.034;7.006;2023-04-01T04:59:35;0.27;;;0.27;;
10661;SDS011;5379;51.034;7.006;2023-04-01T05:02:02;0.20;;;0.20;;
10661;SDS011;5379;51.034;7.006;2023-04-01T05:04:29;0.20;;;0.20;;
10661;SDS011;5379;51.034;7.006;2023-04-01T05:07:01;0.30;;;0.30;;
10661;SDS011;5379;51.034;7.006;2023-04-01T05:09:28;0.23;;;0.23;;
10661;SDS011;5379;51.034;7.006;2023-04-01T05:11:56;0.63;;;0.57;;
10661;SDS011;5379;51.034;7.006;2023-04-01T05:14:23;0.30;;;0.30;;
10661;SDS011;5379;51.034;7.006;2023-04-01T05:16:50;0.30;;;0.30;;
10661;SDS011;5379;51.034;7.006;2023-04-01T05:19:16;0.37;;;0.37;;
10661;SDS011;5379;51.034;7.006;2023-04-01T05:21:43;0.30;;;0.30;;
10661;SDS011;5379;51.034;7.006;2023-04-01T05:24:12;1.13;;;0.37;;
10661;SDS011;5379;51.034;7.006;2023-04-01T05:26:39;0.10;;;0.10;;
10661;SDS011;5379;51.034;7.006;2023-04-01T05:29:06;0.10;;;0.10;;
10661;SDS011;5379;51.034;7.006;2023-04-01T05:31:33;0.53;;;0.53;;
10661;SDS011;5379;51.034;7.006;2023-04-01T05:34:00;0.40;;;0.40;;
10661;SDS011;5379;51.034;7.006;2023-04-01T05:36:26;0.60;;;0.60;;
10661;SDS011;5379;51.034;7.006;2023-04-01T05:38:54;0.60;;;0.60;;
10661;SDS011;5379;51.034;7.006;2023-04-01T05:41:22;0.80;;;0.80;;
10661;SDS011;5379;51.034;7.006;2023-04-01T05:43:49;0.40;;;0.40;;
10661;SDS011;5379;51.034;7.006;2023-04-01T05:46:16;1.00;;;0.97;;
10661;SDS011;5379;51.034;7.006;2023-04-01T05:48:43;0.60;;;0.60;;
10661;SDS011;5379;51.034;7.006;2023-04-01T05:51:12;0.90;;;0.90;;
10661;SDS011;5379;51.034;7.006;2023-04-01T05:53:39;0.80;;;0.80;;
10661;SDS011;5379;51.034;7.006;2023-04-01T05:56:07;1.07;;;1.00;;
10661;SDS011;5379;51.034;7.006;2023-04-01T05:58:35;1.10;;;1.10;;
10661;SDS011;5379;51.034;7.006;2023-04-01T06:01:03;0.77;;;0.77;;
10661;SDS011;5379;51.034;7.006;2023-04-01T06:03:31;1.17;;;0.90;;
10661;SDS011;5379;51.034;7.006;2023-04-01T06:05:58;0.80;;;0.80;;
10661;SDS011;5379;51.034;7.006;2023-04-01T06:08:26;2.67;;;0.73;;
10661;SDS011;5379;51.034;7.006;2023-04-01T06:10:58;0.90;;;0.90;;
10661;SDS011;5379;51.034;7.006;2023-04-01T06:13:41;3.20;;;1.43;;
10661;SDS011;5379;51.034;7.006;2023-04-01T06:16:21;2.33;;;1.77;;
10661;SDS011;5379;51.034;7.006;2023-04-01T06:18:59;0.93;;;0.93;;
10661;SDS011;5379;51.034;7.006;2023-04-01T06:24:47;0.90;;;0.90;;
10661;SDS011;5379;51.034;7.006;2023-04-01T06:27:45;1.13;;;1.13;;
10661;SDS011;5379;51.034;7.006;2023-04-01T06:30:28;4.97;;;0.77;;
10661;SDS011;5379;51.034;7.006;2023-04-01T06:33:06;0.77;;;0.77;;
10661;SDS011;5379;51.034;7.006;2023-04-01T06:36:03;2.00;;;1.43;;
10661;SDS011;5379;51.034;7.006;2023-04-01T06:38:42;3.50;;;0.93;;
10661;SDS011;5379;51.034;7.006;2023-04-01T06:44:09;0.90;;;0.90;;
10661;SDS011;5379;51.034;7.006;2023-04-01T06:46:45;1.53;;;1.37;;
10661;SDS011;5379;51.034;7.006;2023-04-01T06:49:24;1.60;;;1.50;;
10661;SDS011;5379;51.034;7.006;2023-04-01T06:52:02;1.37;;;1.27;;
10661;SDS011;5379;51.034;7.006;2023-04-01T06:54:39;1.10;;;1.10;;
10661;SDS011;5379;51.034;7.006;2023-04-01T06:57:20;0.53;;;0.53;;
10661;SDS011;5379;51.034;7.006;2023-04-01T06:59:53;1.03;;;1.03;;
10661;SDS011;5379;51.034;7.006;2023-04-01T07:02:25;1.20;;;1.20;;
10661;SDS011;5379;51.034;7.006;2023-04-01T07:05:00;1.23;;;0.83;;
10661;SDS011;5379;51.034;7.006;2023-04-01T07:07:31;0.93;;;0.90;;
10661;SDS011;5379;51.034;7.006;2023-04-01T07:10:02;4.73;;;1.07;;
10661;SDS011;5379;51.034;7.006;2023-04-01T07:12:37;5.07;;;2.17;;
10661;SDS011;5379;51.034;7.006;2023-04-01T07:15:13;1.70;;;1.60;;
10661;SDS011;5379;51.034;7.006;2023-04-01T07:17:45;1.97;;;1.87;;
10661;SDS011;5379;51.034;7.006;2023-04-01T07:20:19;3.30;;;1.40;;
10661;SDS011;5379;51.034;7.006;2023-04-01T07:22:51;1.03;;;1.03;;
10661;SDS011;5379;51.034;7.006;2023-04-01T07:25:21;0.87;;;0.87;;
10661;SDS011;5379;51.034;7.006;2023-04-01T07:27:52;1.10;;;1.10;;
10661;SDS011;5379;51.034;7.006;2023-04-01T07:30:23;1.07;;;1.07;;
10661;SDS011;5379;51.034;7.006;2023-04-01T07:32:55;0.57;;;0.57;;
10661;SDS011;5379;51.034;7.006;2023-04-01T07:35:30;1.23;;;1.13;;
10661;SDS011;5379;51.034;7.006;2023-04-01T07:38:09;1.40;;;0.67;;
10661;SDS011;5379;51.034;7.006;2023-04-01T07:40:47;0.87;;;0.87;;
10661;SDS011;5379;51.034;7.006;2023-04-01T07:43:33;0.90;;;0.90;;
10661;SDS011;5379;51.034;7.006;2023-04-01T07:46:21;0.60;;;0.60;;
10661;SDS011;5379;51.034;7.006;2023-04-01T07:48:58;0.60;;;0.60;;
10661;SDS011;5379;51.034;7.006;2023-04-01T07:51:31;1.83;;;1.10;;
10661;SDS011;5379;51.034;7.006;2023-04-01T07:54:04;0.27;;;0.27;;
10661;SDS011;5379;51.034;7.006;2023-04-01T07:56:37;0.40;;;0.40;;
10661;SDS011;5379;51.034;7.006;2023-04-01T07:59:12;0.40;;;0.40;;
10661;SDS011;5379;51.034;7.006;2023-04-01T08:01:47;0.90;;;0.80;;
10661;SDS011;5379;51.034;7.006;2023-04-01T08:04:27;0.83;;;0.83;;
10661;SDS011;5379;51.034;7.006;2023-04-01T08:07:05;0.50;;;0.50;;
10661;SDS011;5379;51.034;7.006;2023-04-01T08:09:38;0.83;;;0.83;;
10661;SDS011;5379;51.034;7.006;2023-04-01T08:12:18;0.50;;;0.50;;
10661;SDS011;5379;51.034;7.006;2023-04-01T08:14:56;0.40;;;0.40;;
10661;SDS011;5379;51.034;7.006;2023-04-01T08:17:35;0.30;;;0.30;;
10661;SDS011;5379;51.034;7.006;2023-04-01T08:22:59;0.30;;;0.30;;
10661;SDS011;5379;51.034;7.006;2023-04-01T08:25:33;0.30;;;0.30;;
10661;SDS011;5379;51.034;7.006;2023-04-01T08:28:03;0.50;;;0.50;;
10661;SDS011;5379;51.034;7.006;2023-04-01T08:30:40;0.37;;;0.37;;
10661;SDS011;5379;51.034;7.006;2023-04-01T08:33:13;0.20;;;0.20;;
10661;SDS011;5379;51.034;7.006;2023-04-01T08:35:46;0.40;;;0.20;;
10661;SDS011;5379;51.034;7.006;2023-04-01T08:38:17;0.30;;;0.30;;
10661;SDS011;5379;51.034;7.006;2023-04-01T08:52:50;0.37;;;0.37;;
10661;SDS011;5379;51.034;7.006;2023-04-01T08:55:36;0.47;;;0.47;;
10661;SDS011;5379;51.034;7.006;2023-04-01T08:58:16;0.60;;;0.60;;
10661;SDS011;5379;51.034;7.006;2023-04-01T09:01:11;0.10;;;0.10;;
10661;SDS011;5379;51.034;7.006;2023-04-01T09:03:47;0.30;;;0.30;;
10661;SDS011;5379;51.034;7.006;2023-04-01T09:06:35;0.40;;;0.40;;
10661;SDS011;5379;51.034;7.006;2023-04-01T09:09:15;0.10;;;0.10;;
10661;SDS011;5379;51.034;7.006;2023-04-01T09:12:07;0.30;;;0.30;;
10661;SDS011;5379;51.034;7.006;2023-04-01T09:14:51;0.33;;;0.33;;
10661;SDS011;5379;51.034;7.006;2023-04-01T09:17:37;0.40;;;0.40;;
10661;SDS011;5379;51.034;7.006;2023-04-01T09:20:32;0.40;;;0.40;;
10661;SDS011;5379;51.034;7.006;2023-04-01T09:23:28;0.30;;;0.30;;
10661;SDS011;5379;51.034;7.006;2023-04-01T09:26:22;0.37;;;0.37;;
10661;SDS011;5379;51.034;7.006;2023-04-01T09:29:13;0.50;;;0.50;;
10661;SDS011;5379;51.034;7.006;2023-04-01T09:31:58;0.40;;;0.40;;
10661;SDS011;5379;51.034;7.006;2023-04-01T09:34:42;0.40;;;0.40;;
10661;SDS011;5379;51.034;7.006;2023-04-01T09:37:20;0.30;;;0.30;;
10661;SDS011;5379;51.034;7.006;2023-04-01T09:39:54;0.67;;;0.20;;
10661;SDS011;5379;51.034;7.006;2023-04-01T09:42:45;0.37;;;0.37;;
10661;SDS011;5379;51.034;7.006;2023-04-01T09:45:35;0.60;;;0.60;;
10661;SDS011;5379;51.034;7.006;2023-04-01T09:48:14;0.20;;;0.20;;
10661;SDS011;5379;51.034;7.006;2023-04-01T09:50:49;0.67;;;0.30;;
10661;SDS011;5379;51.034;7.006;2023-04-01T09:53:27;0.30;;;0.30;;
10661;SDS011;5379;51.034;7.006;2023-04-01T09:59:16;0.20;;;0.20;;
10661;SDS011;5379;51.034;7.006;2023-04-01T10:05:19;0.77;;;0.77;;
10661;SDS011;5379;51.034;7.006;2023-04-01T10:08:17;0.17;;;0.17;;
10661;SDS011;5379;51.034;7.006;2023-04-01T10:14:36;0.40;;;0.40;;
10661;SDS011;5379;51.034;7.006;2023-04-01T10:17:39;0.60;;;0.60;;
10661;SDS011;5379;51.034;7.006;2023-04-01T10:20:37;0.13;;;0.13;;
10661;SDS011;5379;51.034;7.006;2023-04-01T10:23:25;0.20;;;0.20;;
10661;SDS011;5379;51.034;7.006;2023-04-01T10:29:18;0.40;;;0.40;;
10661;SDS011;5379;51.034;7.006;2023-04-01T10:32:12;0.20;;;0.20;;
10661;SDS011;5379;51.034;7.006;2023-04-01T10:35:33;0.33;;;0.33;;
10661;SDS011;5379;51.034;7.006;2023-04-01T10:38:35;0.70;;;0.60;;
10661;SDS011;5379;51.034;7.006;2023-04-01T10:41:46;0.27;;;0.27;;
10661;SDS011;5379;51.034;7.006;2023-04-01T10:44:42;0.43;;;0.43;;
10661;SDS011;5379;51.034;7.006;2023-04-01T10:47:33;0.47;;;0.47;;
10661;SDS011;5379;51.034;7.006;2023-04-01T10:50:24;0.60;;;0.60;;
10661;SDS011;5379;51.034;7.006;2023-04-01T10:53:08;1.70;;;0.40;;
10661;SDS011;5379;51.034;7.006;2023-04-01T10:59:11;0.60;;;0.60;;
10661;SDS011;5379;51.034;7.006;2023-04-01T11:05:22;0.70;;;0.70;;
10661;SDS011;5379;51.034;7.006;2023-04-01T11:08:12;0.20;;;0.20;;
10661;SDS011;5379;51.034;7.006;2023-04-01T11:11:06;0.60;;;0.60;;
10661;SDS011;5379;51.034;7.006;2023-04-01T11:17:04;0.60;;;0.60;;
10661;SDS011;5379;51.034;7.006;2023-04-01T11:20:06;0.70;;;0.70;;
10661;SDS011;5379;51.034;7.006;2023-04-01T11:25:55;0.30;;;0.30;;
10661;SDS011;5379;51.034;7.006;2023-04-01T11:28:42;0.40;;;0.40;;
10661;SDS011;5379;51.034;7.006;2023-04-01T11:31:23;1.03;;;0.73;;
10661;SDS011;5379;51.034;7.006;2023-04-01T11:34:02;0.20;;;0.20;;
10661;SDS011;5379;51.034;7.006;2023-04-01T11:36:40;0.30;;;0.30;;
10661;SDS011;5379;51.034;7.006;2023-04-01T11:39:22;0.20;;;0.20;;
10661;SDS011;5379;51.034;7.006;2023-04-01T11:41:56;0.40;;;0.40;;
10661;SDS011;5379;51.034;7.006;2023-04-01T11:44:36;0.40;;;0.40;;
10661;SDS011;5379;51.034;7.006;2023-04-01T11:47:30;0.30;;;0.30;;
10661;SDS011;5379;51.034;7.006;2023-04-01T11:50:26;0.37;;;0.37;;
10661;SDS011;5379;51.034;7.006;2023-04-01T11:53:09;0.70;;;0.70;;
10661;SDS011;5379;51.034;7.006;2023-04-01T11:55:47;0.30;;;0.30;;
10661;SDS011;5379;51.034;7.006;2023-04-01T11:58:31;0.43;;;0.43;;
10661;SDS011;5379;51.034;7.006;2023-04-01T12:01:27;0.40;;;0.40;;
10661;SDS011;5379;51.034;7.006;2023-04-01T12:07:23;0.77;;;0.77;;
10661;SDS011;5379;51.034;7.006;2023-04-01T12:09:58;0.40;;;0.40;;
10661;SDS011;5379;51.034;7.006;2023-04-01T12:12:39;0.40;;;0.40;;
10661;SDS011;5379;51.034;7.006;2023-04-01T12:15:16;0.30;;;0.30;;
10661;SDS011;5379;51.034;7.006;2023-04-01T12:17:50;0.30;;;0.30;;
10661;SDS011;5379;51.034;7.006;2023-04-01T12:20:28;0.13;;;0.13;;
10661;SDS011;5379;51.034;7.006;2023-04-01T12:23:06;0.10;;;0.10;;
10661;SDS011;5379;51.034;7.006;2023-04-01T12:25:51;0.10;;;0.10;;
10661;SDS011;5379;51.034;7.006;2023-04-01T12:28:37;0.20;;;0.20;;
10661;SDS011;5379;51.034;7.006;2023-04-01T12:31:18;0.70;;;0.40;;
10661;SDS011;5379;51.034;7.006;2023-04-01T12:34:00;0.30;;;0.30;;
10661;SDS011;5379;51.034;7.006;2023-04-01T12:36:50;0.17;;;0.17;;
10661;SDS011;5379;51.034;7.006;2023-04-01T12:39:32;0.60;;;0.60;;
10661;SDS011;5379;51.034;7.006;2023-04-01T12:42:14;0.47;;;0.47;;
10661;SDS011;5379;51.034;7.006;2023-04-01T12:44:53;0.20;;;0.20;;
10661;SDS011;5379;51.034;7.006;2023-04-01T12:50:33;0.50;;;0.50;;
10661;SDS011;5379;51.034;7.006;2023-04-01T12:53:18;0.63;;;0.63;;
10661;SDS011;5379;51.034;7.006;2023-04-01T12:55:59;0.40;;;0.40;;
10661;SDS011;5379;51.034;7.006;2023-04-01T12:58:44;0.30;;;0.30;;
10661;SDS011;5379;51.034;7.006;2023-04-01T13:01:30;0.60;;;0.60;;
10661;SDS011;5379;51.034;7.006;2023-04-01T13:04:31;0.53;;;0.53;;
10661;SDS011;5379;51.034;7.006;2023-04-01T13:07:15;0.27;;;0.27;;
10661;SDS011;5379;51.034;7.006;2023-04-01T13:09:57;0.60;;;0.60;;
10661;SDS011;5379;51.034;7.006;2023-04-01T13:12:39;0.67;;;0.67;;
10661;SDS011;5379;51.034;7.006;2023-04-01T13:15:28;0.30;;;0.30;;
10661;SDS011;5379;51.034;7.006;2023-04-01T13:18:05;0.50;;;0.50;;
10661;SDS011;5379;51.034;7.006;2023-04-01T13:20:44;0.40;;;0.40;;
10661;SDS011;5379;51.034;7.006;2023-04-01T13:23:31;0.43;;;0.43;;
10661;SDS011;5379;51.034;7.006;2023-04-01T13:26:06;0.50;;;0.50;;
10661;SDS011;5379;51.034;7.006;2023-04-01T13:28:45;0.70;;;0.70;;
10661;SDS011;5379;51.034;7.006;2023-04-01T13:31:24;0.43;;;0.43;;
10661;SDS011;5379;51.034;7.006;2023-04-01T13:34:08;0.60;;;0.60;;
10661;SDS011;5379;51.034;7.006;2023-04-01T13:36:46;0.60;;;0.60;;
10661;SDS011;5379;51.034;7.006;2023-04-01T13:39:27;0.47;;;0.47;;
10661;SDS011;5379;51.034;7.006;2023-04-01T13:42:12;0.70;;;0.70;;
10661;SDS011;5379;51.034;7.006;2023-04-01T13:44:45;0.60;;;0.60;;
10661;SDS011;5379;51.034;7.006;2023-04-01T13:47:30;0.70;;;0.70;;
10661;SDS011;5379;51.034;7.006;2023-04-01T13:56:12;0.80;;;0.80;;
10661;SDS011;5379;51.034;7.006;2023-04-01T13:58:57;0.70;;;0.70;;
10661;SDS011;5379;51.034;7.006;2023-04-01T14:01:35;0.60;;;0.60;;
10661;SDS011;5379;51.034;7.006;2023-04-01T14:04:23;0.80;;;0.80;;
10661;SDS011;5379;51.034;7.006;2023-04-01T14:07:26;0.70;;;0.70;;
10661;SDS011;5379;51.034;7.006;2023-04-01T14:10:05;0.57;;;0.57;;
10661;SDS011;5379;51.034;7.006;2023-04-01T14:12:42;0.40;;;0.40;;
10661;SDS011;5379;51.034;7.006;2023-04-01T14:15:22;0.80;;;0.80;;
10661;SDS011;5379;51.034;7.006;2023-04-01T14:18:01;0.70;;;0.70;;
10661;SDS011;5379;51.034;7.006;2023-04-01T14:20:46;0.70;;;0.70;;
10661;SDS011;5379;51.034;7.006;2023-04-01T14:23:39;0.80;;;0.80;;
10661;SDS011;5379;51.034;7.006;2023-04-01T14:29:28;2.80;;;2.60;;
10661;SDS011;5379;51.034;7.006;2023-04-01T14:32:06;0.70;;;0.70;;
10661;SDS011;5379;51.034;7.006;2023-04-01T14:34:45;0.90;;;0.90;;
10661;SDS011;5379;51.034;7.006;2023-04-01T14:37:55;0.70;;;0.70;;
10661;SDS011;5379;51.034;7.006;2023-04-01T14:40:49;0.60;;;0.60;;
10661;SDS011;5379;51.034;7.006;2023-04-01T14:46:27;1.23;;;1.07;;
10661;SDS011;5379;51.034;7.006;2023-04-01T14:49:30;1.23;;;1.23;;
10661;SDS011;5379;51.034;7.006;2023-04-01T14:52:04;0.63;;;0.63;;
10661;SDS011;5379;51.034;7.006;2023-04-01T14:54:37;1.20;;;1.20;;
10661;SDS011;5379;51.034;7.006;2023-04-01T14:57:11;0.90;;;0.90;;
10661;SDS011;5379;51.034;7.006;2023-04-01T14:59:40;1.20;;;1.20;;
10661;SDS011;5379;51.034;7.006;2023-04-01T15:02:15;0.87;;;0.87;;
10661;SDS011;5379;51.034;7.006;2023-04-01T15:04:58;2.23;;;0.83;;
10661;SDS011;5379;51.034;7.006;2023-04-01T15:07:42;0.90;;;0.90;;
10661;SDS011;5379;51.034;7.006;2023-04-01T15:10:34;0.87;;;0.87;;
10661;SDS011;5379;51.034;7.006;2023-04-01T15:13:13;0.90;;;0.90;;
10661;SDS011;5379;51.034;7.006;2023-04-01T15:15:48;0.60;;;0.60;;
10661;SDS011;5379;51.034;7.006;2023-04-01T15:18:26;0.57;;;0.57;;
10661;SDS011;5379;51.034;7.006;2023-04-01T15:21:09;1.10;;;1.00;;
10661;SDS011;5379;51.034;7.006;2023-04-01T15:23:54;0.73;;;0.73;;
10661;SDS011;5379;51.034;7.006;2023-04-01T15:26:34;0.70;;;0.70;;
10661;SDS011;5379;51.034;7.006;2023-04-01T15:29:24;0.57;;;0.50;;
10661;SDS011;5379;51.034;7.006;2023-04-01T15:32:08;0.57;;;0.57;;
10661;SDS011;5379;51.034;7.006;2023-04-01T15:34:43;0.50;;;0.50;;
10661;SDS011;5379;51.034;7.006;2023-04-01T15:37:21;0.50;;;0.50;;
10661;SDS011;5379;51.034;7.006;2023-04-01T15:40:02;0.60;;;0.60;;
10661;SDS011;5379;51.034;7.006;2023-04-01T15:42:45;0.50;;;0.50;;
10661;SDS011;5379;51.034;7.006;2023-04-01T15:45:29;1.00;;;1.00;;
10661;SDS011;5379;51.034;7.006;2023-04-01T15:48:06;0.50;;;0.50;;
10661;SDS011;5379;51.034;7.006;2023-04-01T15:50:51;0.50;;;0.50;;
10661;SDS011;5379;51.034;7.006;2023-04-01T15:53:27;2.43;;;0.67;;
10661;SDS011;5379;51.034;7.006;2023-04-01T15:56:10;0.33;;;0.33;;
10661;SDS011;5379;51.034;7.006;2023-04-01T15:58:50;0.53;;;0.53;;
10661;SDS011;5379;51.034;7.006;2023-04-01T16:01:27;0.60;;;0.60;;
10661;SDS011;5379;51.034;7.006;2023-04-01T16:04:06;0.47;;;0.47;;
10661;SDS011;5379;51.034;7.006;2023-04-01T16:06:53;1.10;;;1.10;;
10661;SDS011;5379;51.034;7.006;2023-04-01T16:09:39;0.80;;;0.80;;
10661;SDS011;5379;51.034;7.006;2023-04-01T16:12:18;0.80;;;0.80;;
10661;SDS011;5379;51.034;7.006;2023-04-01T16:14:56;0.50;;;0.50;;
10661;SDS011;5379;51.034;7.006;2023-04-01T16:17:42;1.03;;;0.80;;
10661;SDS011;5379;51.034;7.006;2023-04-01T16:20:20;0.80;;;0.80;;
10661;SDS011;5379;51.034;7.006;2023-04-01T16:22:53;0.80;;;0.80;;
10661;SDS011;5379;51.034;7.006;2023-04-01T16:25:27;0.90;;;0.90;;
10661;SDS011;5379;51.034;7.006;2023-04-01T16:28:04;1.20;;;1.10;;
10661;SDS011;5379;51.034;7.006;2023-04-01T16:30:42;1.00;;;1.00;;
10661;SDS011;5379;51.034;7.006;2023-04-01T16:33:15;0.90;;;0.90;;
10661;SDS011;5379;51.034;7.006;2023-04-01T16:35:50;0.93;;;0.93;;
10661;SDS011;5379;51.034;7.006;2023-04-01T16:38:24;0.70;;;0.70;;
10661;SDS011;5379;51.034;7.006;2023-04-01T16:41:03;0.63;;;0.63;;
10661;SDS011;5379;51.034;7.006;2023-04-01T16:43:39;0.60;;;0.60;;
10661;SDS011;5379;51.034;7.006;2023-04-01T16:49:04;0.63;;;0.63;;
10661;SDS011;5379;51.034;7.006;2023-04-01T16:51:52;1.07;;;0.80;;
10661;SDS011;5379;51.034;7.006;2023-04-01T16:54:26;0.67;;;0.67;;
10661;SDS011;5379;51.034;7.006;2023-04-01T16:57:01;0.70;;;0.70;;
10661;SDS011;5379;51.034;7.006;2023-04-01T16:59:44;0.70;;;0.70;;
10661;SDS011;5379;51.034;7.006;2023-04-01T17:02:14;0.70;;;0.70;;
10661;SDS011;5379;51.034;7.006;2023-04-01T17:04:45;5.10;;;1.27;;
10661;SDS011;5379;51.034;7.006;2023-04-01T17:07:17;1.47;;;1.20;;
10661;SDS011;5379;51.034;7.006;2023-04-01T17:09:56;1.57;;;0.93;;
10661;SDS011;5379;51.034;7.006;2023-04-01T17:12:37;0.97;;;0.97;;
10661;SDS011;5379;51.034;7.006;2023-04-01T17:15:14;1.03;;;1.03;;
10661;SDS011;5379;51.034;7.006;2023-04-01T17:17:49;1.43;;;1.33;;
10661;SDS011;5379;51.034;7.006;2023-04-01T17:20:35;0.50;;;0.50;;
10661;SDS011;5379;51.034;7.006;2023-04-01T17:23:11;0.83;;;0.83;;
10661;SDS011;5379;51.034;7.006;2023-04-01T17:25:59;0.90;;;0.90;;
10661;SDS011;5379;51.034;7.006;2023-04-01T17:28:41;0.90;;;0.90;;
10661;SDS011;5379;51.034;7.006;2023-04-01T17:31:16;1.10;;;1.10;;
10661;SDS011;5379;51.034;7.006;2023-04-01T17:33:58;1.00;;;1.00;;
10661;SDS011;5379;51.034;7.006;2023-04-01T17:36:42;1.07;;;1.07;;
10661;SDS011;5379;51.034;7.006;2023-04-01T17:39:25;1.17;;;1.17;;
10661;SDS011;5379;51.034;7.006;2023-04-01T17:42:05;1.80;;;1.70;;
10661;SDS011;5379;51.034;7.006;2023-04-01T17:44:41;0.90;;;0.90;;
10661;SDS011;5379;51.034;7.006;2023-04-01T17:47:20;1.00;;;1.00;;
10661;SDS011;5379;51.034;7.006;2023-04-01T17:50:00;0.90;;;0.90;;
10661;SDS011;5379;51.034;7.006;2023-04-01T17:52:39;0.53;;;0.53;;
10661;SDS011;5379;51.034;7.006;2023-04-01T17:55:21;0.70;;;0.70;;
10661;SDS011;5379;51.034;7.006;2023-04-01T17:58:11;1.00;;;1.00;;
10661;SDS011;5379;51.034;7.006;2023-04-01T18:00:48;0.77;;;0.77;;
10661;SDS011;5379;51.034;7.006;2023-04-01T18:03:30;0.80;;;0.80;;
10661;SDS011;5379;51.034;7.006;2023-04-01T18:06:15;1.03;;;1.03;;
10661;SDS011;5379;51.034;7.006;2023-04-01T18:08:53;0.90;;;0.90;;
10661;SDS011;5379;51.034;7.006;2023-04-01T18:11:31;1.10;;;1.10;;
10661;SDS011;5379;51.034;7.006;2023-04-01T18:16:58;1.10;;;1.10;;
10661;SDS011;5379;51.034;7.006;2023-04-01T18:19:39;0.80;;;0.80;;
10661;SDS011;5379;51.034;7.006;2023-04-01T18:22:16;0.80;;;0.80;;
10661;SDS011;5379;51.034;7.006;2023-04-01T18:24:49;0.73;;;0.73;;
10661;SDS011;5379;51.034;7.006;2023-04-01T18:27:28;1.23;;;1.20;;
10661;SDS011;5379;51.034;7.006;2023-04-01T18:29:59;1.20;;;1.10;;
10661;SDS011;5379;51.034;7.006;2023-04-01T18:32:34;0.80;;;0.80;;
10661;SDS011;5379;51.034;7.006;2023-04-01T18:35:14;1.53;;;1.43;;
10661;SDS011;5379;51.034;7.006;2023-04-01T18:37:56;1.13;;;1.13;;
10661;SDS011;5379;51.034;7.006;2023-04-01T18:40:30;1.77;;;1.73;;
10661;SDS011;5379;51.034;7.006;2023-04-01T18:43:04;2.50;;;2.30;;
10661;SDS011;5379;51.034;7.006;2023-04-01T18:45:40;1.50;;;1.50;;
10661;SDS011;5379;51.034;7.006;2023-04-01T18:48:14;2.10;;;2.00;;
10661;SDS011;5379;51.034;7.006;2023-04-01T18:50:59;1.70;;;1.70;;
10661;SDS011;5379;51.034;7.006;2023-04-01T18:53:38;2.27;;;2.17;;
10661;SDS011;5379;51.034;7.006;2023-04-01T18:56:10;1.87;;;1.77;;
10661;SDS011;5379;51.034;7.006;2023-04-01T18:58:44;2.07;;;1.97;;
10661;SDS011;5379;51.034;7.006;2023-04-01T19:01:16;2.07;;;1.97;;
10661;SDS011;5379;51.034;7.006;2023-04-01T19:03:55;1.43;;;1.43;;
10661;SDS011;5379;51.034;7.006;2023-04-01T19:06:29;1.40;;;1.40;;
10661;SDS011;5379;51.034;7.006;2023-04-01T19:09:00;2.07;;;1.97;;
10661;SDS011;5379;51.034;7.006;2023-04-01T19:11:44;1.70;;;1.70;;
10661;SDS011;5379;51.034;7.006;2023-04-01T19:14:50;1.60;;;1.60;;
10661;SDS011;5379;51.034;7.006;2023-04-01T19:17:26;1.57;;;1.50;;
10661;SDS011;5379;51.034;7.006;2023-04-01T19:20:07;1.50;;;1.50;;
10661;SDS011;5379;51.034;7.006;2023-04-01T19:22:48;1.47;;;1.37;;
10661;SDS011;5379;51.034;7.006;2023-04-01T19:25:33;1.70;;;1.60;;
10661;SDS011;5379;51.034;7.006;2023-04-01T19:28:15;1.70;;;1.60;;
10661;SDS011;5379;51.034;7.006;2023-04-01T19:30:51;1.90;;;1.87;;
10661;SDS011;5379;51.034;7.006;2023-04-01T19:33:34;2.03;;;1.93;;
10661;SDS011;5379;51.034;7.006;2023-04-01T19:36:11;1.70;;;1.67;;
10661;SDS011;5379;51.034;7.006;2023-04-01T19:38:51;1.60;;;1.50;;
10661;SDS011;5379;51.034;7.006;2023-04-01T19:41:26;1.30;;;1.30;;
10661;SDS011;5379;51.034;7.006;2023-04-01T19:44:07;1.60;;;1.60;;
10661;SDS011;5379;51.034;7.006;2023-04-01T19:46:44;1.13;;;1.13;;
10661;SDS011;5379;51.034;7.006;2023-04-01T19:49:27;1.30;;;1.30;;
10661;SDS011;5379;51.034;7.006;2023-04-01T19:52:05;1.10;;;1.10;;
10661;SDS011;5379;51.034;7.006;2023-04-01T19:54:40;1.27;;;1.27;;
10661;SDS011;5379;51.034;7.006;2023-04-01T19:57:15;1.40;;;1.40;;
10661;SDS011;5379;51.034;7.006;2023-04-01T19:59:50;1.37;;;1.33;;
10661;SDS011;5379;51.034;7.006;2023-04-01T20:20:25;1.20;;;1.20;;
10661;SDS011;5379;51.034;7.006;2023-04-01T20:23:16;1.10;;;1.10;;
10661;SDS011;5379;51.034;7.006;2023-04-01T20:26:02;1.00;;;1.00;;
10661;SDS011;5379;51.034;7.006;2023-04-01T20:28:32;1.13;;;1.13;;
10661;SDS011;5379;51.034;7.006;2023-04-01T20:31:20;1.07;;;1.07;;
10661;SDS011;5379;51.034;7.006;2023-04-01T20:34:01;1.67;;;1.63;;
10661;SDS011;5379;51.034;7.006;2023-04-01T20:36:39;1.37;;;1.27;;
10661;SDS011;5379;51.034;7.006;2023-04-01T20:39:26;1.30;;;1.30;;
10661;SDS011;5379;51.034;7.006;2023-04-01T20:42:21;1.77;;;1.70;;
10661;SDS011;5379;51.034;7.006;2023-04-01T20:45:10;2.10;;;2.00;;
10661;SDS011;5379;51.034;7.006;2023-04-01T20:47:51;1.37;;;1.37;;
10661;SDS011;5379;51.034;7.006;2023-04-01T21:16:56;3.40;;;3.20;;
10661;SDS011;5379;51.034;7.006;2023-04-01T21:19:36;3.10;;;2.90;;
10661;SDS011;5379;51.034;7.006;2023-04-01T21:22:16;3.57;;;3.33;;
10661;SDS011;5379;51.034;7.006;2023-04-01T21:25:03;2.37;;;2.27;;
10661;SDS011;5379;51.034;7.006;2023-04-01T21:27:53;3.57;;;3.37;;
10661;SDS011;5379;51.034;7.006;2023-04-01T21:30:41;3.70;;;3.50;;
10661;SDS011;5379;51.034;7.006;2023-04-01T21:33:26;3.23;;;3.03;;
10661;SDS011;5379;51.034;7.006;2023-04-01T21:36:04;3.33;;;2.20;;
10661;SDS011;5379;51.034;7.006;2023-04-01T21:38:46;2.80;;;2.70;;
10661;SDS011;5379;51.034;7.006;2023-04-01T21:41:27;5.13;;;4.20;;
10661;SDS011;5379;51.034;7.006;2023-04-01T21:47:08;3.30;;;3.10;;
10661;SDS011;5379;51.034;7.006;2023-04-01T21:53:24;2.87;;;2.77;;
10661;SDS011;5379;51.034;7.006;2023-04-01T22:00:01;4.43;;;3.03;;
10661;SDS011;5379;51.034;7.006;2023-04-01T22:02:59;2.90;;;2.80;;
10661;SDS011;5379;51.034;7.006;2023-04-01T22:05:48;2.50;;;2.40;;
10661;SDS011;5379;51.034;7.006;2023-04-01T22:08:38;2.50;;;2.40;;
10661;SDS011;5379;51.034;7.006;2023-04-01T22:11:14;2.17;;;2.07;;
10661;SDS011;5379;51.034;7.006;2023-04-01T22:13:59;2.07;;;1.97;;
10661;SDS011;5379;51.034;7.006;2023-04-01T22:16:33;1.90;;;1.80;;
10661;SDS011;5379;51.034;7.006;2023-04-01T22:19:08;1.90;;;1.80;;
10661;SDS011;5379;51.034;7.006;2023-04-01T22:21:42;2.10;;;2.00;;
10661;SDS011;5379;51.034;7.006;2023-04-01T22:24:20;2.10;;;2.00;;
10661;SDS011;5379;51.034;7.006;2023-04-01T22:26:56;2.17;;;2.07;;
10661;SDS011;5379;51.034;7.006;2023-04-01T22:29:30;1.50;;;1.50;;
10661;SDS011;5379;51.034;7.006;2023-04-01T22:32:03;1.73;;;1.67;;
10661;SDS011;5379;51.034;7.006;2023-04-01T22:34:35;1.60;;;1.60;;
10661;SDS011;5379;51.034;7.006;2023-04-01T22:37:08;2.20;;;2.10;;
10661;SDS011;5379;51.034;7.006;2023-04-01T22:39:53;2.00;;;1.90;;
10661;SDS011;5379;51.034;7.006;2023-04-01T22:42:37;1.90;;;1.40;;
10661;SDS011;5379;51.034;7.006;2023-04-01T22:45:15;1.40;;;1.40;;
10661;SDS011;5379;51.034;7.006;2023-04-01T22:47:51;1.80;;;1.80;;
10661;SDS011;5379;51.034;7.006;2023-04-01T22:50:27;2.30;;;1.60;;
10661;SDS011;5379;51.034;7.006;2023-04-01T22:53:03;1.70;;;1.70;;